CheckWX is a tool to help pilots better visualize weather data.  It is not intended as a substitute for an official pre-flight weather briefing.

12:27:13 UTC

KGFA TAF
Malmstrom AFB Heliport
Great Falls, Montana, USA
TAF KGFA 221100Z 2211/2317 VRB06KT 9999 FEW100 QNH2982INS BECMG 2311/2312 24012G18KT 9999 SCT020 BKN040 620509 QNH2986INS TX09/2221Z TNM05/2211Z

Mar-22@
11:00 UTC

Mar-22 @ 11:00 UTC

Mar-23@
11:00 UTC

Mar-23 @ 11:00 UTC

TAF KGFA 221100Z 2211/2317 VRB06KT 9999 FEW100 QNH2982INS
Wind
  • Variable at 6 KTS
Cloud Levels
  • Few at 10,000' AGL

Mar-23@
11:00 UTC

Mar-23 @ 11:00 UTC

Mar-23@
17:00 UTC

Mar-23 @ 17:00 UTC

BECMG 2311/2312 24012G18KT 9999 SCT020 BKN040 620509 QNH2986INS TX09/2221Z TNM05/2211Z

Becoming

Becoming Conditions expected by Sat, Mar 23, 2019 @ 12:00 UTC

Wind
  • 240° at 12 KTS
  • {Gusting to 18 KTS
Cloud Levels
  • Scattered at 2,000' AGL
  • Broken at 4,000' AGL
Icing
Light icing in cloud expected at 5,000' AGL extending to 14,000' AGL